createdAt,value
2019-03-30T00:01:53.070Z,32.57
2019-03-30T00:04:23.343Z,33.70
2019-03-30T00:06:53.552Z,34.90
2019-03-30T00:09:23.799Z,32.20
2019-03-30T00:11:53.988Z,31.63
2019-03-30T00:14:24.249Z,32.97
2019-03-30T00:16:54.431Z,33.40
2019-03-30T00:19:34.856Z,31.80
2019-03-30T00:21:56.622Z,35.27
2019-03-30T00:24:26.846Z,34.63
2019-03-30T00:26:57.076Z,35.47
2019-03-30T00:29:27.271Z,35.00
2019-03-30T00:31:57.547Z,34.07
2019-03-30T00:34:27.718Z,35.23
2019-03-30T00:36:57.978Z,34.37
2019-03-30T00:39:28.160Z,35.43
2019-03-30T00:41:58.421Z,33.47
2019-03-30T00:44:28.806Z,32.37
2019-03-30T00:46:59.073Z,33.13
2019-03-30T00:49:29.285Z,31.07
2019-03-30T00:51:59.510Z,30.27
2019-03-30T00:54:29.711Z,32.80
2019-03-30T00:57:00.962Z,32.20
2019-03-30T00:59:31.207Z,32.10
2019-03-30T01:02:01.425Z,33.43
2019-03-30T01:04:31.695Z,33.57
2019-03-30T01:07:02.059Z,33.83
2019-03-30T01:09:32.271Z,32.07
2019-03-30T01:12:02.670Z,32.40
2019-03-30T01:14:33.843Z,31.70
2019-03-30T01:17:04.763Z,31.37
2019-03-30T01:19:34.987Z,31.80
2019-03-30T01:22:05.408Z,31.37
2019-03-30T01:24:35.659Z,31.10
2019-03-30T01:27:06.160Z,30.73
2019-03-30T01:29:36.413Z,30.57
2019-03-30T01:32:06.632Z,31.27
2019-03-30T01:34:36.843Z,29.77
2019-03-30T01:37:07.071Z,32.00
2019-03-30T01:39:37.296Z,30.20
2019-03-30T01:42:07.610Z,29.37
2019-03-30T01:44:37.863Z,30.70
2019-03-30T01:47:08.230Z,28.57
2019-03-30T01:49:38.630Z,29.90
2019-03-30T01:52:08.819Z,28.33
2019-03-30T01:54:39.018Z,31.33
2019-03-30T01:57:09.270Z,29.63
2019-03-30T01:59:39.442Z,28.33
2019-03-30T02:02:09.712Z,31.40
2019-03-30T02:04:39.922Z,29.30
2019-03-30T02:07:10.187Z,28.27
2019-03-30T02:09:40.463Z,29.30
2019-03-30T02:12:10.752Z,30.70
2019-03-30T02:14:41.099Z,29.30
2019-03-30T02:17:11.360Z,30.97
2019-03-30T02:19:41.629Z,30.73
2019-03-30T02:22:11.918Z,29.17
2019-03-30T02:24:42.113Z,29.67
2019-03-30T02:27:12.499Z,31.30
2019-03-30T02:29:42.803Z,30.83
2019-03-30T02:32:12.984Z,31.33
2019-03-30T02:34:43.212Z,29.20
2019-03-30T02:37:14.516Z,31.10
2019-03-30T02:39:44.784Z,31.63
2019-03-30T02:42:14.988Z,30.27
2019-03-30T02:44:45.215Z,30.30
2019-03-30T02:47:15.519Z,30.07
2019-03-30T02:49:45.768Z,29.57
2019-03-30T02:52:16.029Z,30.83
2019-03-30T02:54:46.388Z,29.37
2019-03-30T02:57:16.900Z,27.73
2019-03-30T02:59:47.156Z,27.23
2019-03-30T03:02:17.382Z,29.73
2019-03-30T03:04:47.728Z,27.07
2019-03-30T03:07:18.051Z,28.33
2019-03-30T03:09:48.384Z,27.07
2019-03-30T03:12:18.584Z,27.90
2019-03-30T03:14:48.834Z,26.03
2019-03-30T03:17:20.058Z,24.77
2019-03-30T03:19:50.355Z,25.60
2019-03-30T03:22:21.946Z,27.17
2019-03-30T03:24:52.300Z,28.17
2019-03-30T03:27:22.729Z,24.83
2019-03-30T03:29:53.079Z,26.73
2019-03-30T03:32:23.345Z,25.60
2019-03-30T03:34:53.655Z,25.87
2019-03-30T03:37:23.966Z,25.93
2019-03-30T03:39:54.192Z,27.50
2019-03-30T03:42:24.614Z,24.90
2019-03-30T03:44:54.849Z,27.37
2019-03-30T03:47:25.186Z,25.23
2019-03-30T03:49:55.391Z,26.57
2019-03-30T03:52:25.787Z,27.40
2019-03-30T03:54:56.408Z,27.03
2019-03-30T03:57:28.288Z,26.30
2019-03-30T03:59:59.308Z,26.63
2019-03-30T04:02:34.199Z,27.80
2019-03-30T04:05:05.296Z,27.33
2019-03-30T04:07:37.092Z,28.47
2019-03-30T04:10:07.716Z,30.07
2019-03-30T04:12:39.991Z,30.10
2019-03-30T04:15:13.253Z,30.00
2019-03-30T04:17:44.052Z,29.47
2019-03-30T04:20:17.649Z,29.57
2019-03-30T04:22:47.832Z,30.57
2019-03-30T04:25:18.056Z,30.63
2019-03-30T04:27:48.365Z,31.23
2019-03-30T04:30:18.595Z,31.97
2019-03-30T04:32:48.892Z,32.50
2019-03-30T04:35:19.165Z,33.93
2019-03-30T04:37:49.418Z,33.07
2019-03-30T04:40:19.865Z,33.20
2019-03-30T04:42:50.205Z,31.87
2019-03-30T04:45:20.504Z,32.30
2019-03-30T04:47:51.706Z,30.63
2019-03-30T04:50:21.927Z,30.83
2019-03-30T04:52:52.319Z,28.77
2019-03-30T04:55:22.646Z,29.17
2019-03-30T04:57:53.528Z,28.17
2019-03-30T05:00:23.715Z,29.10
2019-03-30T05:02:53.895Z,29.03
2019-03-30T05:05:24.492Z,28.10
2019-03-30T05:07:54.705Z,29.40
2019-03-30T05:10:24.911Z,27.93
2019-03-30T05:12:55.163Z,27.10
2019-03-30T05:15:25.403Z,29.57
2019-03-30T05:17:55.671Z,28.70
2019-03-30T05:20:25.920Z,29.37
2019-03-30T05:22:56.312Z,29.33
2019-03-30T05:25:26.583Z,28.97
2019-03-30T05:27:56.871Z,30.20
2019-03-30T05:30:27.097Z,29.67
2019-03-30T05:33:05.662Z,30.57
2019-03-30T05:35:29.287Z,33.43
2019-03-30T05:38:01.434Z,30.23
2019-03-30T05:40:31.487Z,30.00
2019-03-30T05:43:01.701Z,32.33
2019-03-30T05:45:31.875Z,30.23
2019-03-30T05:48:02.220Z,29.70
2019-03-30T05:50:32.540Z,29.77
2019-03-30T05:53:02.808Z,30.70
2019-03-30T05:55:32.992Z,31.43
2019-03-30T05:58:03.328Z,29.77
2019-03-30T06:00:33.628Z,29.67
2019-03-30T06:03:03.842Z,31.03
2019-03-30T06:05:34.114Z,32.17
2019-03-30T06:08:04.347Z,32.57
2019-03-30T06:10:34.614Z,34.30
2019-03-30T06:13:04.936Z,34.07
2019-03-30T06:15:35.215Z,35.17
2019-03-30T06:18:06.462Z,35.33
2019-03-30T06:20:36.844Z,36.40
2019-03-30T06:23:07.045Z,34.37
2019-03-30T06:25:37.352Z,36.70
2019-03-30T06:28:07.539Z,37.67
2019-03-30T06:30:37.749Z,40.57
2019-03-30T06:33:08.074Z,41.07
2019-03-30T06:35:38.321Z,41.47
2019-03-30T06:38:08.948Z,41.43
2019-03-30T06:40:39.211Z,41.10
2019-03-30T06:43:12.217Z,41.10
2019-03-30T06:45:45.260Z,42.00
2019-03-30T06:48:16.451Z,42.63
2019-03-30T06:50:46.827Z,43.87
2019-03-30T06:53:19.515Z,43.00
2019-03-30T06:55:50.816Z,45.40
2019-03-30T06:58:21.256Z,41.20
2019-03-30T07:00:52.862Z,42.67
2019-03-30T07:03:23.921Z,44.83
2019-03-30T07:05:56.539Z,42.90
2019-03-30T07:08:29.558Z,44.23
2019-03-30T07:11:01.131Z,42.80
2019-03-30T07:13:34.080Z,44.23
2019-03-30T07:16:05.483Z,43.20
2019-03-30T07:18:36.559Z,42.17
2019-03-30T07:21:06.804Z,42.80
2019-03-30T07:23:37.285Z,43.17
2019-03-30T07:26:07.643Z,41.07
2019-03-30T07:28:38.091Z,46.30
2019-03-30T07:31:08.375Z,43.47
2019-03-30T07:33:38.715Z,43.77
2019-03-30T07:36:08.909Z,44.87
2019-03-30T07:38:39.159Z,44.93
2019-03-30T07:41:09.372Z,42.90
2019-03-30T07:43:39.654Z,45.07
2019-03-30T07:46:10.042Z,44.40
2019-03-30T07:48:40.303Z,44.20
2019-03-30T07:51:10.555Z,43.87
2019-03-30T07:53:44.752Z,44.83
2019-03-30T07:56:12.728Z,44.60
2019-03-30T07:58:42.968Z,43.47
2019-03-30T08:01:13.274Z,46.13
2019-03-30T08:03:43.679Z,44.33
2019-03-30T08:06:13.973Z,44.27
2019-03-30T08:08:44.202Z,44.55
2019-03-30T08:11:14.601Z,42.63
2019-03-30T08:13:45.023Z,45.17
2019-03-30T08:16:15.245Z,45.90
2019-03-30T08:18:45.615Z,44.70
2019-03-30T08:21:15.885Z,46.48
2019-03-30T08:23:46.116Z,45.40
2019-03-30T08:26:16.400Z,44.35
2019-03-30T08:28:46.684Z,45.10
2019-03-30T08:31:16.854Z,42.90
2019-03-30T08:33:47.062Z,43.75
2019-03-30T08:36:17.350Z,45.63
2019-03-30T08:38:47.570Z,45.23
2019-03-30T08:41:17.763Z,42.38
2019-03-30T08:43:47.959Z,43.02
2019-03-30T08:46:18.279Z,41.73
2019-03-30T08:48:49.624Z,41.88
2019-03-30T08:51:20.924Z,41.18
2019-03-30T08:53:54.770Z,40.03
2019-03-30T08:56:23.374Z,39.18
2019-03-30T08:58:53.702Z,40.33
2019-03-30T09:01:23.936Z,39.50
2019-03-30T09:03:54.257Z,40.85
2019-03-30T09:06:24.545Z,40.05
2019-03-30T09:08:54.823Z,39.18
2019-03-30T09:11:25.034Z,40.30
2019-03-30T09:13:55.272Z,41.45
2019-03-30T09:16:25.471Z,38.73
2019-03-30T09:18:55.668Z,38.90
2019-03-30T09:21:25.919Z,37.48
2019-03-30T09:24:08.950Z,36.98
2019-03-30T09:26:28.148Z,36.15
2019-03-30T09:28:58.347Z,36.65
2019-03-30T09:31:29.563Z,36.58
2019-03-30T09:34:01.456Z,36.63
2019-03-30T09:36:31.741Z,36.25
2019-03-30T09:39:02.015Z,37.28
2019-03-30T09:41:34.900Z,35.40
2019-03-30T09:44:05.373Z,35.03
2019-03-30T09:46:35.628Z,33.00
2019-03-30T09:49:05.875Z,31.27
2019-03-30T09:51:36.155Z,31.27
2019-03-30T09:54:06.407Z,31.68
2019-03-30T09:56:36.607Z,33.92
2019-03-30T09:59:06.796Z,36.08
2019-03-30T10:01:37.045Z,37.03
2019-03-30T10:04:07.387Z,37.03
2019-03-30T10:06:37.618Z,37.33
2019-03-30T10:09:08.088Z,37.60
2019-03-30T10:11:38.493Z,36.68
2019-03-30T10:14:08.684Z,36.42
2019-03-30T10:16:38.907Z,35.52
2019-03-30T10:19:09.224Z,35.08
2019-03-30T10:21:40.604Z,33.38
2019-03-30T10:24:10.847Z,33.02
2019-03-30T10:26:41.159Z,31.35
2019-03-30T10:29:11.475Z,32.63
2019-03-30T10:31:42.009Z,33.30
2019-03-30T10:34:13.250Z,31.90
2019-03-30T10:36:43.514Z,33.45
2019-03-30T10:39:13.839Z,32.17
2019-03-30T10:41:44.013Z,33.08
2019-03-30T10:44:14.216Z,33.88
2019-03-30T10:46:44.497Z,33.25
2019-03-30T10:49:14.756Z,31.65
2019-03-30T10:51:44.995Z,34.88
2019-03-30T10:54:15.211Z,33.38
2019-03-30T10:56:45.895Z,33.10
2019-03-30T10:59:16.159Z,34.10
2019-03-30T11:01:46.391Z,33.38
2019-03-30T11:04:16.591Z,34.55
2019-03-30T11:06:46.769Z,32.13
2019-03-30T11:09:17.048Z,32.33
2019-03-30T11:11:47.284Z,32.30
2019-03-30T11:14:17.482Z,32.25
2019-03-30T11:16:47.793Z,32.45
2019-03-30T11:19:18.975Z,33.80
2019-03-30T11:21:49.196Z,31.87
2019-03-30T11:24:19.383Z,29.42
2019-03-30T11:26:49.634Z,27.93
2019-03-30T11:29:19.919Z,31.37
2019-03-30T11:31:51.192Z,30.90
2019-03-30T11:34:21.452Z,31.12
2019-03-30T11:36:51.623Z,30.25
2019-03-30T11:39:21.847Z,32.85
2019-03-30T11:41:52.076Z,29.57
2019-03-30T11:44:22.296Z,30.88
2019-03-30T11:46:52.526Z,31.25
2019-03-30T11:49:22.805Z,28.27
2019-03-30T11:51:52.986Z,30.23
2019-03-30T11:54:23.239Z,30.20
2019-03-30T11:56:53.634Z,28.70
2019-03-30T11:59:23.872Z,28.47
2019-03-30T12:01:55.272Z,28.07
2019-03-30T12:04:25.520Z,26.82
2019-03-30T12:06:56.005Z,27.50
2019-03-30T12:09:26.277Z,26.30
2019-03-30T12:11:56.504Z,25.10
2019-03-30T12:14:26.770Z,25.60
2019-03-30T12:16:56.962Z,25.57
2019-03-30T12:19:27.256Z,21.90
2019-03-30T12:21:57.547Z,23.12
2019-03-30T12:24:27.792Z,21.23
2019-03-30T12:26:58.035Z,21.68
2019-03-30T12:29:28.256Z,21.05
2019-03-30T12:31:58.443Z,21.15
2019-03-30T12:34:28.639Z,21.17
2019-03-30T12:36:58.893Z,21.25
2019-03-30T12:39:29.204Z,22.17
2019-03-30T12:41:59.515Z,24.25
2019-03-30T12:44:29.703Z,24.90
2019-03-30T12:47:00.993Z,23.42
2019-03-30T12:49:31.255Z,22.95
2019-03-30T12:52:01.451Z,24.00
2019-03-30T12:54:31.755Z,24.20
2019-03-30T12:57:01.998Z,24.37
2019-03-30T12:59:32.184Z,25.10
2019-03-30T13:02:03.442Z,23.80
2019-03-30T13:04:33.659Z,24.98
2019-03-30T13:07:04.003Z,22.40
2019-03-30T13:09:34.915Z,22.73
2019-03-30T13:12:06.316Z,21.80
2019-03-30T13:14:36.894Z,21.30
2019-03-30T13:17:07.164Z,19.77
2019-03-30T13:19:37.355Z,20.05
2019-03-30T13:22:07.531Z,18.80
2019-03-30T13:24:37.787Z,20.35
2019-03-30T13:27:08.091Z,20.85
2019-03-30T13:29:39.392Z,20.45
2019-03-30T13:32:09.652Z,19.48
2019-03-30T13:34:39.854Z,19.92
2019-03-30T13:37:19.503Z,20.23
2019-03-30T13:39:49.877Z,19.12
2019-03-30T13:42:20.215Z,21.57
2019-03-30T13:44:50.411Z,22.65
2019-03-30T13:47:20.675Z,21.68
2019-03-30T13:49:50.924Z,21.20
2019-03-30T13:52:21.164Z,23.50
2019-03-30T13:54:51.376Z,22.58
2019-03-30T13:57:21.645Z,22.52
2019-03-30T13:59:51.923Z,22.50
2019-03-30T14:02:22.107Z,22.50
2019-03-30T14:04:52.716Z,23.57
2019-03-30T14:07:23.016Z,23.65
2019-03-30T14:09:54.490Z,23.87
2019-03-30T14:12:24.732Z,24.27
2019-03-30T14:14:55.100Z,24.15
2019-03-30T14:17:26.295Z,23.67
2019-03-30T14:19:56.577Z,25.27
2019-03-30T14:22:27.048Z,24.67
2019-03-30T14:24:57.398Z,24.45
2019-03-30T14:27:27.638Z,25.43
2019-03-30T14:29:57.843Z,26.65
2019-03-30T14:32:28.055Z,25.88
2019-03-30T14:34:58.354Z,25.90
2019-03-30T14:37:28.609Z,26.23
2019-03-30T14:39:58.846Z,25.70
2019-03-30T14:42:29.040Z,26.60
2019-03-30T14:44:59.300Z,27.75
2019-03-30T14:47:29.479Z,25.48
2019-03-30T14:49:59.659Z,25.68
2019-03-30T14:52:29.927Z,25.82
2019-03-30T14:55:00.181Z,24.82
2019-03-30T14:57:30.487Z,25.62
2019-03-30T15:00:00.718Z,24.12
2019-03-30T15:02:32.875Z,24.95
2019-03-30T15:05:03.094Z,24.87
2019-03-30T15:07:33.336Z,25.15
2019-03-30T15:10:03.672Z,23.65
2019-03-30T15:12:33.912Z,22.52
2019-03-30T15:15:04.412Z,24.90
2019-03-30T15:17:34.626Z,24.92
2019-03-30T15:20:05.243Z,24.63
2019-03-30T15:22:35.590Z,24.67
2019-03-30T15:25:07.158Z,26.17
2019-03-30T15:27:37.456Z,25.27
2019-03-30T15:30:08.178Z,25.05
2019-03-30T15:32:38.531Z,24.95
2019-03-30T15:35:08.875Z,26.40
2019-03-30T15:37:39.050Z,24.32
2019-03-30T15:40:09.499Z,25.40
2019-03-30T15:42:40.387Z,26.52
2019-03-30T15:45:11.730Z,25.45
2019-03-30T15:47:41.995Z,24.72
2019-03-30T15:50:12.900Z,24.72
2019-03-30T15:52:43.168Z,26.55
2019-03-30T15:55:13.440Z,25.95
2019-03-30T15:57:44.805Z,26.05
2019-03-30T16:00:16.602Z,26.17
2019-03-30T16:02:46.810Z,24.98
2019-03-30T16:05:17.203Z,23.80
2019-03-30T16:07:47.462Z,25.37
2019-03-30T16:10:17.990Z,23.80
2019-03-30T16:12:48.211Z,22.32
2019-03-30T16:15:18.505Z,22.80
2019-03-30T16:17:48.751Z,23.95
2019-03-30T16:20:19.239Z,23.62
2019-03-30T16:22:49.510Z,23.38
2019-03-30T16:25:19.778Z,21.25
2019-03-30T16:27:50.073Z,21.27
2019-03-30T16:30:20.524Z,23.55
2019-03-30T16:32:50.795Z,21.42
2019-03-30T16:35:20.995Z,22.65
2019-03-30T16:37:51.335Z,20.75
2019-03-30T16:40:21.715Z,22.58
2019-03-30T16:42:52.152Z,30.30
2019-03-30T16:45:22.369Z,26.90
2019-03-30T16:47:52.728Z,26.02
2019-03-30T16:50:22.951Z,25.70
2019-03-30T16:52:53.215Z,24.32
2019-03-30T16:55:23.483Z,24.47
2019-03-30T16:57:53.687Z,25.00
2019-03-30T17:00:25.137Z,23.70
2019-03-30T17:02:55.334Z,24.15
2019-03-30T17:05:25.536Z,23.20
2019-03-30T17:07:55.703Z,26.48
2019-03-30T17:10:25.895Z,26.15
2019-03-30T17:12:56.121Z,28.85
2019-03-30T17:15:26.314Z,31.97
2019-03-30T17:17:56.531Z,32.08
2019-03-30T17:20:26.779Z,30.35
2019-03-30T17:22:58.811Z,26.37
2019-03-30T17:25:29.103Z,27.07
2019-03-30T17:27:59.392Z,27.00
2019-03-30T17:30:29.656Z,28.30
2019-03-30T17:32:59.836Z,28.62
2019-03-30T17:35:30.042Z,29.40
2019-03-30T17:38:00.218Z,28.70
2019-03-30T17:40:31.378Z,26.65
2019-03-30T17:43:01.617Z,29.52
2019-03-30T17:45:31.790Z,27.80
2019-03-30T17:48:02.057Z,26.57
2019-03-30T17:50:32.307Z,26.85
2019-03-30T17:53:02.503Z,25.88
2019-03-30T17:55:34.247Z,26.65
2019-03-30T17:58:12.759Z,27.37
2019-03-30T18:00:37.474Z,26.97
2019-03-30T18:03:07.700Z,27.90
2019-03-30T18:05:37.934Z,26.07
2019-03-30T18:08:08.141Z,24.85
2019-03-30T18:10:39.645Z,26.17
2019-03-30T18:13:09.927Z,26.75
2019-03-30T18:15:40.225Z,25.77
2019-03-30T18:18:10.460Z,27.87
2019-03-30T18:20:40.717Z,26.40
2019-03-30T18:23:10.912Z,26.75
2019-03-30T18:25:41.152Z,27.27
2019-03-30T18:28:11.356Z,26.20
2019-03-30T18:30:41.775Z,28.27
2019-03-30T18:33:13.388Z,25.95
2019-03-30T18:35:43.838Z,27.10
2019-03-30T18:38:14.067Z,26.55
2019-03-30T18:40:44.466Z,26.25
2019-03-30T18:43:14.667Z,27.95
2019-03-30T18:45:45.040Z,29.32
2019-03-30T18:48:18.849Z,29.23
2019-03-30T18:50:49.549Z,27.48
2019-03-30T18:53:19.887Z,29.98
2019-03-30T18:55:50.271Z,30.75
2019-03-30T18:58:20.484Z,31.50
2019-03-30T19:00:50.701Z,30.23
2019-03-30T19:03:25.311Z,32.53
2019-03-30T19:05:55.552Z,35.00
2019-03-30T19:08:25.798Z,37.05
2019-03-30T19:10:56.153Z,46.58
2019-03-30T19:13:26.455Z,39.95
2019-03-30T19:15:56.847Z,39.73
2019-03-30T19:18:27.279Z,42.58
2019-03-30T19:20:57.627Z,40.83
2019-03-30T19:23:28.084Z,39.47
2019-03-30T19:25:58.360Z,40.33
2019-03-30T19:28:28.903Z,38.88
2019-03-30T19:30:59.264Z,40.50
2019-03-30T19:33:29.579Z,42.75
2019-03-30T19:36:00.945Z,42.58
2019-03-30T19:38:31.438Z,41.67
2019-03-30T19:41:01.808Z,43.13
2019-03-30T19:43:32.070Z,43.35
2019-03-30T19:46:02.297Z,41.02
2019-03-30T19:48:32.637Z,40.92
2019-03-30T19:51:02.931Z,42.30
2019-03-30T19:53:33.187Z,40.90
2019-03-30T19:56:05.486Z,40.12
2019-03-30T19:58:35.759Z,41.58
2019-03-30T20:01:06.391Z,42.58
2019-03-30T20:03:36.724Z,42.33
2019-03-30T20:06:06.938Z,39.13
2019-03-30T20:08:37.114Z,39.07
2019-03-30T20:11:07.399Z,38.45
2019-03-30T20:13:37.697Z,38.57
2019-03-30T20:16:07.992Z,38.20
2019-03-30T20:18:38.283Z,35.90
2019-03-30T20:21:08.563Z,37.00
2019-03-30T20:23:38.851Z,34.53
2019-03-30T20:26:09.144Z,34.37
2019-03-30T20:28:39.398Z,36.57
2019-03-30T20:31:09.712Z,37.00
2019-03-30T20:33:39.981Z,36.53
2019-03-30T20:36:10.452Z,37.67
2019-03-30T20:38:40.751Z,38.75
2019-03-30T20:41:11.122Z,35.93
2019-03-30T20:43:41.354Z,36.57
2019-03-30T20:46:11.656Z,36.13
2019-03-30T20:48:41.899Z,34.00
2019-03-30T20:51:12.295Z,34.60
2019-03-30T20:53:42.548Z,35.80
2019-03-30T20:56:12.801Z,37.27
2019-03-30T20:58:43.480Z,36.73
2019-03-30T21:01:13.742Z,37.67
2019-03-30T21:03:43.942Z,34.87
2019-03-30T21:06:15.202Z,35.73
2019-03-30T21:08:45.427Z,33.37
2019-03-30T21:11:15.672Z,34.90
2019-03-30T21:13:45.831Z,34.13
2019-03-30T21:16:16.024Z,34.20
2019-03-30T21:18:46.307Z,35.07
2019-03-30T21:21:16.593Z,35.07
2019-03-30T21:23:46.909Z,36.37
2019-03-30T21:26:17.190Z,36.57
2019-03-30T21:28:47.703Z,35.27
2019-03-30T21:31:17.996Z,34.60
2019-03-30T21:33:48.230Z,36.70
2019-03-30T21:36:18.779Z,36.23
2019-03-30T21:38:49.035Z,37.67
2019-03-30T21:41:19.282Z,35.30
2019-03-30T21:43:49.628Z,35.10
2019-03-30T21:46:19.886Z,34.70
2019-03-30T21:48:50.075Z,35.50
2019-03-30T21:51:20.251Z,36.30
2019-03-30T21:53:50.476Z,36.93
2019-03-30T21:56:20.768Z,33.97
2019-03-30T21:58:52.016Z,32.93
2019-03-30T22:01:22.339Z,29.80
2019-03-30T22:03:52.546Z,29.90
2019-03-30T22:06:22.812Z,29.23
2019-03-30T22:08:54.001Z,26.20
2019-03-30T22:11:24.192Z,26.87
2019-03-30T22:13:54.459Z,25.43
2019-03-30T22:16:24.640Z,23.10
2019-03-30T22:18:54.924Z,22.67
2019-03-30T22:21:25.145Z,21.43
2019-03-30T22:23:55.340Z,21.20
2019-03-30T22:26:26.005Z,20.87
2019-03-30T22:28:56.200Z,19.87
2019-03-30T22:31:26.475Z,19.53
2019-03-30T22:33:56.826Z,19.87
2019-03-30T22:36:28.058Z,21.37
2019-03-30T22:38:58.231Z,20.00
2019-03-30T22:41:28.471Z,18.07
2019-03-30T22:43:58.654Z,18.30
2019-03-30T22:46:28.888Z,18.30
2019-03-30T22:48:59.079Z,17.03
2019-03-30T22:51:29.351Z,16.87
2019-03-30T22:53:59.691Z,18.10
2019-03-30T22:56:29.887Z,14.63
2019-03-30T22:59:00.076Z,16.73
2019-03-30T23:01:30.587Z,14.40
2019-03-30T23:04:00.748Z,14.03
2019-03-30T23:06:30.990Z,13.53
2019-03-30T23:09:01.291Z,13.03
2019-03-30T23:11:32.764Z,13.87
2019-03-30T23:14:02.951Z,13.60
2019-03-30T23:16:33.539Z,13.10
2019-03-30T23:19:03.877Z,12.57
2019-03-30T23:21:34.185Z,12.80
2019-03-30T23:24:04.531Z,12.63
2019-03-30T23:26:34.871Z,12.07
2019-03-30T23:29:05.224Z,13.33
2019-03-30T23:31:35.523Z,13.07
2019-03-30T23:34:05.856Z,15.00
2019-03-30T23:36:36.118Z,13.33
2019-03-30T23:39:07.865Z,12.63
2019-03-30T23:41:38.061Z,12.00
2019-03-30T23:44:08.427Z,12.57
2019-03-30T23:46:38.634Z,13.23
2019-03-30T23:49:08.837Z,12.27
2019-03-30T23:51:39.211Z,12.27
2019-03-30T23:54:13.895Z,12.67
2019-03-30T23:56:44.123Z,13.13
2019-03-30T23:59:14.387Z,14.13
